createdAt,value
2019-05-05T00:00:44.706Z,100936.80
2019-05-05T00:03:15.054Z,100933.58
2019-05-05T00:05:44.415Z,100936.06
2019-05-05T00:08:10.353Z,100932.84
2019-05-05T00:10:57.035Z,100941.39
2019-05-05T00:13:27.054Z,100944.22
2019-05-05T00:16:00.249Z,100947.80
2019-05-05T00:18:27.882Z,100949.75
2019-05-05T00:20:55.218Z,100951.84
2019-05-05T00:23:21.139Z,100957.44
2019-05-05T00:25:46.932Z,100954.16
2019-05-05T00:28:14.319Z,100952.58
2019-05-05T00:30:40.341Z,100958.14
2019-05-05T00:33:06.259Z,100949.76
2019-05-05T00:35:32.177Z,100958.76
2019-05-05T00:37:58.372Z,100959.88
2019-05-05T00:40:24.837Z,100958.80
2019-05-05T00:42:50.788Z,100958.98
2019-05-05T00:45:16.675Z,100952.41
2019-05-05T00:47:47.221Z,100957.26
2019-05-05T00:50:15.573Z,100959.30
2019-05-05T00:52:41.361Z,100963.59
2019-05-05T00:55:07.545Z,100965.00
2019-05-05T00:57:34.781Z,100967.55
2019-05-05T01:00:00.683Z,100964.67
2019-05-05T01:02:28.396Z,100967.73
2019-05-05T01:04:56.207Z,100971.14
2019-05-05T01:07:21.982Z,100972.03
2019-05-05T01:09:47.934Z,100970.09
2019-05-05T01:12:15.219Z,100981.70
2019-05-05T01:14:41.024Z,100977.59
2019-05-05T01:17:06.802Z,100972.53
2019-05-05T01:19:34.849Z,100983.05
2019-05-05T01:22:00.342Z,100981.03
2019-05-05T01:24:26.125Z,100975.61
2019-05-05T01:26:51.900Z,100982.03
2019-05-05T01:29:17.692Z,100989.41
2019-05-05T01:31:45.218Z,100990.76
2019-05-05T01:34:14.963Z,100994.16
2019-05-05T01:36:40.670Z,100984.50
2019-05-05T01:39:14.716Z,100987.27
2019-05-05T01:41:42.560Z,100985.83
2019-05-05T01:44:08.367Z,100992.61
2019-05-05T01:46:35.304Z,100994.54
2019-05-05T01:49:01.261Z,100993.09
2019-05-05T01:51:27.242Z,100995.03
2019-05-05T01:53:54.567Z,100993.09
2019-05-05T01:56:20.706Z,100993.37
2019-05-05T01:58:47.079Z,100996.51
2019-05-05T02:01:12.891Z,100994.23
2019-05-05T02:03:38.667Z,100990.02
2019-05-05T02:06:05.263Z,100990.02
2019-05-05T02:08:31.140Z,100990.98
2019-05-05T02:10:56.923Z,100994.73
2019-05-05T02:13:22.699Z,100997.66
2019-05-05T02:15:48.531Z,100998.34
2019-05-05T02:18:14.897Z,100995.96
2019-05-05T02:20:50.274Z,100999.08
2019-05-05T02:23:18.289Z,100995.97
2019-05-05T02:25:44.741Z,101000.18
2019-05-05T02:28:10.912Z,101002.94
2019-05-05T02:30:47.725Z,101004.62
2019-05-05T02:33:15.747Z,101003.80
2019-05-05T02:35:41.814Z,101009.11
2019-05-05T02:38:08.012Z,101007.91
2019-05-05T02:40:35.083Z,101005.73
2019-05-05T02:43:01.077Z,101009.59
2019-05-05T02:45:35.289Z,101005.14
2019-05-05T02:48:05.902Z,101003.69
2019-05-05T02:50:50.830Z,101004.55
2019-05-05T02:53:04.041Z,101008.03
2019-05-05T02:55:32.811Z,101002.37
2019-05-05T02:58:01.059Z,100999.13
2019-05-05T03:00:29.149Z,100999.95
2019-05-05T03:02:57.347Z,101004.30
2019-05-05T03:05:23.627Z,101002.87
2019-05-05T03:07:49.423Z,101006.59
2019-05-05T03:10:15.301Z,101003.94
2019-05-05T03:12:41.095Z,101005.99
2019-05-05T03:15:07.066Z,101010.70
2019-05-05T03:17:34.061Z,101009.38
2019-05-05T03:20:00.646Z,101009.38
2019-05-05T03:22:26.537Z,101013.35
2019-05-05T03:24:54.128Z,101012.39
2019-05-05T03:27:20.015Z,101016.60
2019-05-05T03:29:45.886Z,101023.33
2019-05-05T03:32:12.033Z,101013.35
2019-05-05T03:34:38.563Z,101024.56
2019-05-05T03:37:04.758Z,101021.31
2019-05-05T03:39:33.888Z,101017.93
2019-05-05T03:42:03.536Z,101022.63
2019-05-05T03:44:34.266Z,101023.09
2019-05-05T03:47:00.359Z,101030.33
2019-05-05T03:49:26.234Z,101030.68
2019-05-05T03:51:54.213Z,101033.60
2019-05-05T03:54:20.010Z,101035.27
2019-05-05T03:56:45.988Z,101034.66
2019-05-05T03:59:14.023Z,101046.36
2019-05-05T04:01:57.746Z,101045.77
2019-05-05T04:04:24.749Z,101046.73
2019-05-05T04:06:55.676Z,101043.48
2019-05-05T04:09:21.669Z,101045.88
2019-05-05T04:11:47.551Z,101041.20
2019-05-05T04:14:14.187Z,101050.48
2019-05-05T04:16:47.538Z,101052.17
2019-05-05T04:19:24.039Z,101049.63
2019-05-05T04:21:49.824Z,101053.14
2019-05-05T04:24:15.622Z,101050.63
2019-05-05T04:26:41.397Z,101054.48
2019-05-05T04:29:07.188Z,101056.03
2019-05-05T04:31:34.565Z,101064.49
2019-05-05T04:34:00.471Z,101062.67
2019-05-05T04:36:26.243Z,101065.59
2019-05-05T04:38:54.590Z,101067.25
2019-05-05T04:41:20.451Z,101064.00
2019-05-05T04:43:46.258Z,101063.63
2019-05-05T04:46:14.022Z,101065.09
2019-05-05T04:48:43.450Z,101074.98
2019-05-05T04:51:11.217Z,101077.16
2019-05-05T04:53:41.449Z,101080.75
2019-05-05T04:56:07.242Z,101089.80
2019-05-05T04:58:33.566Z,101082.69
2019-05-05T05:00:59.420Z,101088.35
2019-05-05T05:03:45.051Z,101092.06
2019-05-05T05:06:15.497Z,101096.17
2019-05-05T05:08:41.278Z,101096.64
2019-05-05T05:11:07.062Z,101094.24
2019-05-05T05:13:34.750Z,101092.62
2019-05-05T05:16:00.535Z,101089.38
2019-05-05T05:18:26.310Z,101089.69
2019-05-05T05:20:52.112Z,101091.43
2019-05-05T05:23:17.894Z,101092.09
2019-05-05T05:25:43.951Z,101088.27
2019-05-05T05:28:09.774Z,101095.89
2019-05-05T05:30:35.561Z,101090.52
2019-05-05T05:33:01.337Z,101097.80
2019-05-05T05:35:27.139Z,101098.18
2019-05-05T05:37:53.988Z,101102.17
2019-05-05T05:40:23.611Z,101107.70
2019-05-05T05:42:49.499Z,101107.59
2019-05-05T05:45:34.387Z,101116.08
2019-05-05T05:48:04.586Z,101107.80
2019-05-05T05:50:35.051Z,101108.36
2019-05-05T05:53:00.832Z,101116.16
2019-05-05T05:55:26.626Z,101114.14
2019-05-05T05:57:54.177Z,101118.84
2019-05-05T06:00:20.189Z,101115.88
2019-05-05T06:02:45.964Z,101122.64
2019-05-05T06:05:11.786Z,101129.03
2019-05-05T06:07:37.561Z,101128.45
2019-05-05T06:10:03.889Z,101130.11
2019-05-05T06:12:29.652Z,101123.83
2019-05-05T06:14:55.432Z,101135.59
2019-05-05T06:17:21.233Z,101137.20
2019-05-05T06:19:47.009Z,101141.50
2019-05-05T06:22:15.171Z,101142.59
2019-05-05T06:24:40.490Z,101142.70
2019-05-05T06:27:06.284Z,101154.23
2019-05-05T06:29:34.345Z,101155.04
2019-05-05T06:31:59.751Z,101143.64
2019-05-05T06:34:25.540Z,101148.38
2019-05-05T06:36:51.343Z,101150.55
2019-05-05T06:39:17.121Z,101150.55
2019-05-05T06:41:50.607Z,101155.05
2019-05-05T06:44:26.860Z,101157.80
2019-05-05T06:47:13.541Z,101155.58
2019-05-05T06:49:39.415Z,101161.42
2019-05-05T06:52:05.203Z,101160.56
2019-05-05T06:54:30.994Z,101161.88
2019-05-05T06:56:56.800Z,101164.41
2019-05-05T06:59:24.334Z,101162.94
2019-05-05T07:01:50.279Z,101160.68
2019-05-05T07:04:16.057Z,101160.68
2019-05-05T07:06:53.549Z,101155.27
2019-05-05T07:09:09.543Z,101161.05
2019-05-05T07:11:35.324Z,101161.05
2019-05-05T07:14:03.631Z,101169.73
2019-05-05T07:16:29.322Z,101169.45
2019-05-05T07:18:55.112Z,101169.45
2019-05-05T07:21:23.509Z,101174.51
2019-05-05T07:23:48.979Z,101174.06
2019-05-05T07:26:14.751Z,101170.94
2019-05-05T07:28:40.540Z,101176.05
2019-05-05T07:31:06.372Z,101176.34
2019-05-05T07:33:34.347Z,101189.49
2019-05-05T07:36:18.212Z,101188.91
2019-05-05T07:38:45.924Z,101187.08
2019-05-05T07:41:11.713Z,101176.19
2019-05-05T07:43:37.504Z,101186.86
2019-05-05T07:46:04.440Z,101190.34
2019-05-05T07:48:30.307Z,101190.55
2019-05-05T07:51:02.123Z,101187.02
2019-05-05T07:53:24.451Z,101131.84
2019-05-05T07:55:50.479Z,101131.84
2019-05-05T07:58:16.292Z,101188.43
2019-05-05T08:00:43.624Z,101200.56
2019-05-05T08:03:09.570Z,101196.83
2019-05-05T08:05:35.364Z,101182.11
2019-05-05T08:08:01.211Z,101183.88
2019-05-05T08:10:27.003Z,101189.57
2019-05-05T08:12:54.228Z,101181.34
2019-05-05T08:15:23.719Z,101190.84
2019-05-05T08:17:56.952Z,101201.79
2019-05-05T08:20:30.431Z,101201.79
2019-05-05T08:22:56.211Z,101203.19
2019-05-05T08:25:36.320Z,101197.96
2019-05-05T08:27:53.834Z,101202.30
2019-05-05T08:30:33.845Z,101203.78
2019-05-05T08:32:59.826Z,101207.41
2019-05-05T08:35:25.619Z,101211.34
2019-05-05T08:37:51.411Z,101207.86
2019-05-05T08:40:17.300Z,101210.78
2019-05-05T08:42:44.557Z,101211.80
2019-05-05T08:45:10.518Z,101210.41
2019-05-05T08:47:36.297Z,101211.34
2019-05-05T08:50:04.250Z,101206.37
2019-05-05T08:52:29.995Z,101201.80
2019-05-05T08:54:55.784Z,101204.36
2019-05-05T08:57:23.550Z,101203.48
2019-05-05T08:59:49.257Z,101201.27
2019-05-05T09:02:15.167Z,101197.73
2019-05-05T09:04:40.937Z,101193.11
2019-05-05T09:07:06.723Z,101196.69
2019-05-05T09:09:33.509Z,101191.47
2019-05-05T09:11:59.427Z,101182.83
2019-05-05T09:14:25.231Z,101193.06
2019-05-05T09:16:51.065Z,101192.21
2019-05-05T09:19:18.743Z,101185.70
2019-05-05T09:21:44.901Z,101184.56
2019-05-05T09:24:15.318Z,101183.91
2019-05-05T09:26:48.896Z,101194.90
2019-05-05T09:29:25.589Z,101196.19
2019-05-05T09:31:51.374Z,101192.14
2019-05-05T09:34:17.189Z,101188.47
2019-05-05T09:36:43.958Z,101193.80
2019-05-05T09:39:09.900Z,101190.72
2019-05-05T09:41:35.695Z,101192.95
2019-05-05T09:44:01.473Z,101190.46
2019-05-05T09:46:27.360Z,101184.39
2019-05-05T09:48:54.178Z,101191.80
2019-05-05T09:51:20.075Z,101197.09
2019-05-05T09:53:45.954Z,101197.94
2019-05-05T09:56:11.764Z,101191.05
2019-05-05T09:58:37.543Z,101198.94
2019-05-05T10:01:04.253Z,101193.41
2019-05-05T10:03:30.044Z,101187.45
2019-05-05T10:05:55.820Z,101193.69
2019-05-05T10:08:23.528Z,101186.47
2019-05-05T10:10:49.377Z,101200.28
2019-05-05T10:13:15.246Z,101180.84
2019-05-05T10:15:41.037Z,101190.81
2019-05-05T10:18:06.820Z,101196.25
2019-05-05T10:20:34.373Z,101190.08
2019-05-05T10:23:00.240Z,101180.86
2019-05-05T10:25:44.650Z,101190.04
2019-05-05T10:28:10.616Z,101190.51
2019-05-05T10:30:36.398Z,101191.81
2019-05-05T10:33:03.742Z,101187.48
2019-05-05T10:35:29.692Z,101188.28
2019-05-05T10:37:55.480Z,101193.45
2019-05-05T10:40:25.701Z,101195.70
2019-05-05T10:42:54.187Z,101208.03
2019-05-05T10:45:21.376Z,101205.45
2019-05-05T10:47:47.568Z,101204.54
2019-05-05T10:50:13.942Z,101205.48
2019-05-05T10:52:39.831Z,101205.42
2019-05-05T10:55:06.167Z,101202.63
2019-05-05T10:57:34.027Z,101201.87
2019-05-05T11:00:10.094Z,101201.59
2019-05-05T11:02:27.475Z,101210.13
2019-05-05T11:04:54.626Z,101206.86
2019-05-05T11:07:20.479Z,101200.61
2019-05-05T11:09:46.262Z,101202.26
2019-05-05T11:12:13.708Z,101207.43
2019-05-05T11:14:39.735Z,101202.69
2019-05-05T11:17:05.533Z,101209.38
2019-05-05T11:19:33.466Z,101213.99
2019-05-05T11:21:59.962Z,101217.80
2019-05-05T11:24:25.755Z,101221.13
2019-05-05T11:26:53.817Z,101212.92
2019-05-05T11:29:20.461Z,101212.58
2019-05-05T11:31:46.185Z,101218.95
2019-05-05T11:34:14.167Z,101211.19
2019-05-05T11:36:43.790Z,101213.06
2019-05-05T11:39:09.659Z,101212.30
2019-05-05T11:41:35.439Z,101214.16
2019-05-05T11:44:01.317Z,101217.52
2019-05-05T11:46:27.144Z,101214.48
2019-05-05T11:48:54.373Z,101212.38
2019-05-05T11:51:20.308Z,101203.26
2019-05-05T11:53:46.107Z,101213.61
2019-05-05T11:56:11.886Z,101211.45
2019-05-05T11:58:37.683Z,101218.83
2019-05-05T12:01:03.901Z,101219.83
2019-05-05T12:03:29.735Z,101224.71
2019-05-05T12:05:55.531Z,101215.40
2019-05-05T12:08:21.307Z,101223.27
2019-05-05T12:10:49.002Z,101224.64
2019-05-05T12:13:14.914Z,101228.08
2019-05-05T12:15:44.536Z,101228.35
2019-05-05T12:18:10.253Z,101229.95
2019-05-05T12:20:37.651Z,101231.36
2019-05-05T12:23:04.617Z,101232.22
2019-05-05T12:25:50.377Z,101238.82
2019-05-05T12:28:24.843Z,101240.54
2019-05-05T12:30:52.841Z,101223.98
2019-05-05T12:33:18.618Z,101228.77
2019-05-05T12:35:44.629Z,101235.56
2019-05-05T12:38:10.395Z,101228.81
2019-05-05T12:40:36.189Z,101234.34
2019-05-05T12:43:03.671Z,101224.92
2019-05-05T12:45:31.486Z,101227.95
2019-05-05T12:47:59.163Z,101233.98
2019-05-05T12:50:25.055Z,101231.70
2019-05-05T12:52:50.840Z,101235.17
2019-05-05T12:55:16.627Z,101224.23
2019-05-05T12:57:43.586Z,101222.39
2019-05-05T13:00:09.838Z,101226.99
2019-05-05T13:02:35.637Z,101236.90
2019-05-05T13:05:01.523Z,101229.84
2019-05-05T13:07:27.318Z,101235.91
2019-05-05T13:09:54.487Z,101232.07
2019-05-05T13:12:20.390Z,101225.50
2019-05-05T13:14:46.180Z,101234.77
2019-05-05T13:17:14.045Z,101239.52
2019-05-05T13:19:43.594Z,101245.62
2019-05-05T13:22:16.724Z,101242.12
2019-05-05T13:24:44.403Z,101244.45
2019-05-05T13:27:19.226Z,101246.72
2019-05-05T13:29:39.796Z,101240.46
2019-05-05T13:32:05.698Z,101245.22
2019-05-05T13:34:31.481Z,101252.05
2019-05-05T13:36:57.316Z,101254.97
2019-05-05T13:39:24.736Z,101254.70
2019-05-05T13:41:50.779Z,101255.59
2019-05-05T13:44:18.546Z,101260.16
2019-05-05T13:46:44.369Z,101259.02
2019-05-05T13:49:26.739Z,101261.04
2019-05-05T13:51:54.017Z,101256.59
2019-05-05T13:54:19.948Z,101260.47
2019-05-05T13:56:45.743Z,101255.36
2019-05-05T13:59:11.530Z,101255.43
2019-05-05T14:01:37.342Z,101250.29
2019-05-05T14:04:04.584Z,101259.64
2019-05-05T14:06:30.447Z,101251.70
2019-05-05T14:08:56.224Z,101257.05
2019-05-05T14:11:22.008Z,101262.20
2019-05-05T14:13:48.588Z,101255.35
2019-05-05T14:16:14.509Z,101259.50
2019-05-05T14:18:40.335Z,101254.39
2019-05-05T14:21:06.118Z,101261.23
2019-05-05T14:23:34.535Z,101252.67
2019-05-05T14:26:00.411Z,101248.69
2019-05-05T14:28:26.207Z,101257.95
2019-05-05T14:30:59.783Z,101255.05
2019-05-05T14:33:27.580Z,101259.19
2019-05-05T14:36:01.044Z,101252.80
2019-05-05T14:38:49.315Z,101252.80
2019-05-05T14:41:15.056Z,101259.31
2019-05-05T14:43:41.011Z,101260.87
2019-05-05T14:46:07.252Z,101260.87
2019-05-05T14:48:34.023Z,101252.88
2019-05-05T14:51:00.726Z,101265.08
2019-05-05T14:53:26.527Z,101265.08
2019-05-05T14:55:53.790Z,101258.58
2019-05-05T14:58:19.632Z,101258.86
2019-05-05T15:00:45.445Z,101272.10
2019-05-05T15:03:11.240Z,101271.55
2019-05-05T15:05:41.695Z,101273.19
2019-05-05T15:08:24.318Z,101272.69
2019-05-05T15:10:54.833Z,101268.16
2019-05-05T15:13:21.650Z,101272.53
2019-05-05T15:15:47.751Z,101269.31
2019-05-05T15:18:14.640Z,101272.86
2019-05-05T15:20:40.551Z,101267.27
2019-05-05T15:23:06.336Z,101271.91
2019-05-05T15:25:34.043Z,101265.28
2019-05-05T15:27:59.823Z,101271.06
2019-05-05T15:30:27.258Z,101260.49
2019-05-05T15:32:54.122Z,101259.84
2019-05-05T15:35:20.024Z,101268.68
2019-05-05T15:37:45.814Z,101265.55
2019-05-05T15:40:14.174Z,101269.56
2019-05-05T15:42:39.793Z,101271.38
2019-05-05T15:45:05.702Z,101268.48
2019-05-05T15:47:31.481Z,101272.20
2019-05-05T15:49:57.286Z,101271.05
2019-05-05T15:52:24.353Z,101263.48
2019-05-05T15:54:50.164Z,101266.77
2019-05-05T15:57:18.050Z,101267.83
2019-05-05T15:59:43.785Z,101267.27
2019-05-05T16:02:09.515Z,101271.05
2019-05-05T16:04:35.327Z,101275.88
2019-05-05T16:07:01.110Z,101268.94
2019-05-05T16:09:26.891Z,101271.83
2019-05-05T16:11:54.607Z,101273.05
2019-05-05T16:14:20.926Z,101268.09
2019-05-05T16:16:48.616Z,101273.61
2019-05-05T16:19:22.097Z,101279.75
2019-05-05T16:21:49.784Z,101275.62
2019-05-05T16:24:17.474Z,101280.73
2019-05-05T16:26:43.284Z,101285.58
2019-05-05T16:29:09.069Z,101281.55
2019-05-05T16:31:34.867Z,101281.66
2019-05-05T16:34:00.644Z,101288.45
2019-05-05T16:36:29.680Z,101285.44
2019-05-05T16:38:55.472Z,101286.98
2019-05-05T16:41:21.264Z,101288.03
2019-05-05T16:43:49.521Z,101286.85
2019-05-05T16:46:17.009Z,101290.48
2019-05-05T16:48:43.976Z,101281.45
2019-05-05T16:51:13.759Z,101290.09
2019-05-05T16:53:39.852Z,101291.28
2019-05-05T16:56:08.344Z,101293.53
2019-05-05T16:58:34.133Z,101295.36
2019-05-05T17:00:59.929Z,101294.98
2019-05-05T17:03:25.731Z,101294.27
2019-05-05T17:05:51.518Z,101297.50
2019-05-05T17:08:17.298Z,101289.24
2019-05-05T17:10:43.563Z,101300.34
2019-05-05T17:13:15.370Z,101289.71
2019-05-05T17:15:44.001Z,101281.13
2019-05-05T17:18:35.177Z,101300.69
2019-05-05T17:20:56.483Z,101289.42
2019-05-05T17:23:23.745Z,101289.42
2019-05-05T17:25:49.575Z,101282.89
2019-05-05T17:28:15.375Z,101282.89
2019-05-05T17:30:41.160Z,101286.52
2019-05-05T17:33:06.956Z,101294.00
2019-05-05T17:35:33.682Z,101293.95
2019-05-05T17:38:13.806Z,101289.91
2019-05-05T17:40:44.707Z,101288.33
2019-05-05T17:43:24.667Z,101293.12
2019-05-05T17:45:56.920Z,101292.94
2019-05-05T17:48:36.481Z,101288.08
2019-05-05T17:51:09.547Z,101287.34
2019-05-05T17:53:37.258Z,101280.81
2019-05-05T17:56:04.962Z,101289.74
2019-05-05T17:58:30.767Z,101284.90
2019-05-05T18:00:58.449Z,101284.90
2019-05-05T18:03:34.769Z,101293.16
2019-05-05T18:06:23.614Z,101292.51
2019-05-05T18:08:53.791Z,101292.51
2019-05-05T18:11:30.133Z,101293.55
2019-05-05T18:14:03.994Z,101291.06
2019-05-05T18:16:33.899Z,101291.06
2019-05-05T18:19:00.745Z,101291.24
2019-05-05T18:21:34.756Z,101294.77
2019-05-05T18:24:01.147Z,101296.14
2019-05-05T18:26:26.929Z,101296.14
2019-05-05T18:28:54.048Z,101291.26
2019-05-05T18:31:20.150Z,101299.51
2019-05-05T18:33:45.950Z,101309.06
2019-05-05T18:36:11.729Z,101300.33
2019-05-05T18:38:37.519Z,101306.39
2019-05-05T18:41:05.212Z,101306.54
2019-05-05T18:43:34.042Z,101309.23
2019-05-05T18:46:01.300Z,101309.73
2019-05-05T18:48:27.097Z,101311.95
2019-05-05T18:50:54.165Z,101311.25
2019-05-05T18:53:19.978Z,101311.58
2019-05-05T18:55:45.761Z,101310.09
2019-05-05T18:58:11.553Z,101314.96
2019-05-05T19:00:47.907Z,101317.65
2019-05-05T19:03:20.294Z,101323.19
2019-05-05T19:05:49.550Z,101326.18
2019-05-05T19:08:17.242Z,101318.64
2019-05-05T19:10:43.390Z,101327.86
2019-05-05T19:13:09.224Z,101322.14
2019-05-05T19:15:35.093Z,101320.61
2019-05-05T19:18:01.034Z,101324.97
2019-05-05T19:20:28.720Z,101317.41
2019-05-05T19:23:03.485Z,101325.78
2019-05-05T19:25:29.373Z,101331.83
2019-05-05T19:27:55.947Z,101330.30
2019-05-05T19:30:21.843Z,101329.09
2019-05-05T19:32:47.623Z,101323.00
2019-05-05T19:35:13.421Z,101330.22
2019-05-05T19:37:39.198Z,101329.70
2019-05-05T19:40:06.172Z,101336.73
2019-05-05T19:42:32.081Z,101328.80
2019-05-05T19:44:57.891Z,101332.34
2019-05-05T19:47:24.604Z,101323.02
2019-05-05T19:50:07.434Z,101319.51
2019-05-05T19:52:34.866Z,101324.87
2019-05-05T19:55:00.713Z,101326.11
2019-05-05T19:57:26.494Z,101312.86
2019-05-05T19:59:54.145Z,101313.55
2019-05-05T20:02:19.965Z,101314.20
2019-05-05T20:04:45.764Z,101307.15
2019-05-05T20:07:13.803Z,101312.00
2019-05-05T20:09:39.251Z,101312.97
2019-05-05T20:12:05.027Z,101305.78
2019-05-05T20:14:30.823Z,101307.40
2019-05-05T20:17:10.642Z,101303.30
2019-05-05T20:19:38.341Z,101306.47
2019-05-05T20:22:04.215Z,101301.55
2019-05-05T20:24:30.025Z,101302.52
2019-05-05T20:26:55.809Z,101301.81
2019-05-05T20:29:23.873Z,101292.53
2019-05-05T20:31:49.280Z,101300.23
2019-05-05T20:34:28.623Z,101303.73
2019-05-05T20:37:04.283Z,101301.19
2019-05-05T20:39:29.837Z,101305.20
2019-05-05T20:41:55.632Z,101297.98
2019-05-05T20:44:22.023Z,101298.28
2019-05-05T20:46:48.257Z,101300.36
2019-05-05T20:49:14.486Z,101296.81
2019-05-05T20:51:40.887Z,101298.63
2019-05-05T20:54:07.656Z,101297.24
2019-05-05T20:56:34.122Z,101300.05
2019-05-05T20:58:59.880Z,101307.82
2019-05-05T21:01:25.674Z,101302.10
2019-05-05T21:03:53.550Z,101300.55
2019-05-05T21:06:19.415Z,101303.00
2019-05-05T21:08:45.576Z,101301.00
2019-05-05T21:11:11.369Z,101297.58
2019-05-05T21:13:37.142Z,101301.87
2019-05-05T21:16:02.933Z,101301.20
2019-05-05T21:18:28.716Z,101301.02
2019-05-05T21:20:55.607Z,101302.70
2019-05-05T21:23:26.919Z,101302.75
2019-05-05T21:26:10.037Z,101292.16
2019-05-05T21:28:35.892Z,101291.51
2019-05-05T21:31:01.785Z,101291.53
2019-05-05T21:33:27.559Z,101289.47
2019-05-05T21:35:55.094Z,101285.98
2019-05-05T21:38:21.098Z,101286.27
2019-05-05T21:40:46.872Z,101289.55
2019-05-05T21:43:12.657Z,101287.05
2019-05-05T21:45:38.551Z,101283.47
2019-05-05T21:48:04.555Z,101285.70
2019-05-05T21:50:33.896Z,101280.47
2019-05-05T21:53:01.721Z,101279.75
2019-05-05T21:55:29.677Z,101281.56
2019-05-05T21:57:57.370Z,101269.44
2019-05-05T22:00:41.519Z,101268.75
2019-05-05T22:03:07.910Z,101273.59
2019-05-05T22:05:33.687Z,101274.56
2019-05-05T22:07:59.487Z,101265.75
2019-05-05T22:10:25.264Z,101260.16
2019-05-05T22:12:51.053Z,101261.73
2019-05-05T22:15:16.827Z,101265.40
2019-05-05T22:17:44.654Z,101253.86
2019-05-05T22:20:14.251Z,101251.98
2019-05-05T22:22:41.792Z,101252.98
2019-05-05T22:25:07.678Z,101245.08
2019-05-05T22:27:34.573Z,101247.22
2019-05-05T22:30:09.647Z,101247.38
2019-05-05T22:32:28.123Z,101247.86
2019-05-05T22:34:53.929Z,101235.03
2019-05-05T22:37:19.699Z,101235.03
2019-05-05T22:39:45.504Z,101240.67
2019-05-05T22:42:11.368Z,101233.00
2019-05-05T22:44:37.168Z,101233.98
2019-05-05T22:47:04.707Z,101235.65
2019-05-05T22:49:30.657Z,101238.32
2019-05-05T22:51:56.439Z,101232.21
2019-05-05T22:54:24.084Z,101228.55
2019-05-05T22:56:49.907Z,101226.52
2019-05-05T22:59:15.694Z,101225.81
2019-05-05T23:01:41.467Z,101228.80
2019-05-05T23:04:09.156Z,101226.06
2019-05-05T23:06:43.831Z,101226.61
2019-05-05T23:09:11.551Z,101218.59
2019-05-05T23:11:37.331Z,101221.77
2019-05-05T23:14:21.440Z,101214.86
2019-05-05T23:16:49.122Z,101215.08
2019-05-05T23:19:14.917Z,101219.45
2019-05-05T23:21:45.372Z,101208.34
2019-05-05T23:24:24.923Z,101209.16
2019-05-05T23:26:54.434Z,101213.97
2019-05-05T23:29:20.290Z,101218.94
2019-05-05T23:31:46.063Z,101206.59
2019-05-05T23:34:11.843Z,101208.53
2019-05-05T23:36:37.636Z,101208.25
2019-05-05T23:39:05.021Z,101203.53
2019-05-05T23:41:30.808Z,101206.84
2019-05-05T23:43:56.599Z,101201.78
2019-05-05T23:46:24.145Z,101200.28
2019-05-05T23:48:50.079Z,101199.45
2019-05-05T23:51:15.869Z,101197.77
2019-05-05T23:53:44.306Z,101190.00
2019-05-05T23:56:09.951Z,101193.03
2019-05-05T23:58:35.718Z,101198.38
